sensor_id;sensor_type;location;lat;lon;timestamp;P1;durP1;ratioP1;P2;durP2;ratioP2
30233;SDS011;17046;52.074;4.748;2023-03-23T00:01:00;10.07;;;3.50;;
30233;SDS011;17046;52.074;4.748;2023-03-23T00:03:26;8.10;;;3.50;;
30233;SDS011;17046;52.074;4.748;2023-03-23T00:05:53;7.90;;;3.63;;
30233;SDS011;17046;52.074;4.748;2023-03-23T00:08:24;7.87;;;2.90;;
30233;SDS011;17046;52.074;4.748;2023-03-23T00:10:51;6.90;;;2.57;;
30233;SDS011;17046;52.074;4.748;2023-03-23T00:13:21;6.73;;;2.93;;
30233;SDS011;17046;52.074;4.748;2023-03-23T00:15:50;7.57;;;2.83;;
30233;SDS011;17046;52.074;4.748;2023-03-23T00:18:17;6.23;;;2.70;;
30233;SDS011;17046;52.074;4.748;2023-03-23T00:20:49;7.47;;;2.80;;
30233;SDS011;17046;52.074;4.748;2023-03-23T00:23:17;7.80;;;3.10;;
30233;SDS011;17046;52.074;4.748;2023-03-23T00:25:48;9.67;;;3.33;;
30233;SDS011;17046;52.074;4.748;2023-03-23T00:28:15;9.57;;;2.77;;
30233;SDS011;17046;52.074;4.748;2023-03-23T00:30:42;6.70;;;2.63;;
30233;SDS011;17046;52.074;4.748;2023-03-23T00:33:09;7.83;;;2.90;;
30233;SDS011;17046;52.074;4.748;2023-03-23T00:35:38;7.60;;;2.87;;
30233;SDS011;17046;52.074;4.748;2023-03-23T00:38:04;5.33;;;2.23;;
30233;SDS011;17046;52.074;4.748;2023-03-23T00:40:30;4.97;;;2.70;;
30233;SDS011;17046;52.074;4.748;2023-03-23T00:42:56;7.83;;;2.47;;
30233;SDS011;17046;52.074;4.748;2023-03-23T00:45:22;4.50;;;2.30;;
30233;SDS011;17046;52.074;4.748;2023-03-23T00:47:49;7.20;;;2.20;;
30233;SDS011;17046;52.074;4.748;2023-03-23T00:50:16;5.97;;;2.13;;
30233;SDS011;17046;52.074;4.748;2023-03-23T00:52:43;5.97;;;2.63;;
30233;SDS011;17046;52.074;4.748;2023-03-23T00:55:08;8.73;;;2.60;;
30233;SDS011;17046;52.074;4.748;2023-03-23T00:57:34;5.83;;;2.70;;
30233;SDS011;17046;52.074;4.748;2023-03-23T01:00:00;4.80;;;2.10;;
30233;SDS011;17046;52.074;4.748;2023-03-23T01:02:26;7.30;;;2.33;;
30233;SDS011;17046;52.074;4.748;2023-03-23T01:04:52;8.67;;;2.57;;
30233;SDS011;17046;52.074;4.748;2023-03-23T01:07:21;5.97;;;2.00;;
30233;SDS011;17046;52.074;4.748;2023-03-23T01:09:48;6.33;;;2.30;;
30233;SDS011;17046;52.074;4.748;2023-03-23T01:12:13;5.53;;;2.27;;
30233;SDS011;17046;52.074;4.748;2023-03-23T01:14:40;5.53;;;2.43;;
30233;SDS011;17046;52.074;4.748;2023-03-23T01:17:06;4.10;;;2.20;;
30233;SDS011;17046;52.074;4.748;2023-03-23T01:19:31;3.93;;;2.00;;
30233;SDS011;17046;52.074;4.748;2023-03-23T01:21:57;5.87;;;2.10;;
30233;SDS011;17046;52.074;4.748;2023-03-23T01:24:22;4.13;;;2.10;;
30233;SDS011;17046;52.074;4.748;2023-03-23T01:26:48;6.60;;;2.20;;
30233;SDS011;17046;52.074;4.748;2023-03-23T01:29:13;6.03;;;1.80;;
30233;SDS011;17046;52.074;4.748;2023-03-23T01:31:39;5.17;;;2.30;;
30233;SDS011;17046;52.074;4.748;2023-03-23T01:34:05;5.17;;;2.27;;
30233;SDS011;17046;52.074;4.748;2023-03-23T01:36:31;4.93;;;2.10;;
30233;SDS011;17046;52.074;4.748;2023-03-23T01:38:58;6.50;;;1.90;;
30233;SDS011;17046;52.074;4.748;2023-03-23T01:41:29;4.73;;;2.10;;
30233;SDS011;17046;52.074;4.748;2023-03-23T01:43:56;4.50;;;2.23;;
30233;SDS011;17046;52.074;4.748;2023-03-23T01:46:26;3.27;;;2.27;;
30233;SDS011;17046;52.074;4.748;2023-03-23T01:48:53;4.67;;;2.20;;
30233;SDS011;17046;52.074;4.748;2023-03-23T01:51:22;4.70;;;2.40;;
30233;SDS011;17046;52.074;4.748;2023-03-23T01:53:56;5.50;;;1.93;;
30233;SDS011;17046;52.074;4.748;2023-03-23T01:56:26;5.30;;;1.93;;
30233;SDS011;17046;52.074;4.748;2023-03-23T01:58:57;4.73;;;2.10;;
30233;SDS011;17046;52.074;4.748;2023-03-23T02:01:23;6.17;;;2.10;;
30233;SDS011;17046;52.074;4.748;2023-03-23T02:03:50;5.13;;;2.17;;
30233;SDS011;17046;52.074;4.748;2023-03-23T02:06:19;3.43;;;1.90;;
30233;SDS011;17046;52.074;4.748;2023-03-23T02:08:45;3.33;;;2.07;;
30233;SDS011;17046;52.074;4.748;2023-03-23T02:11:15;4.40;;;2.27;;
30233;SDS011;17046;52.074;4.748;2023-03-23T02:13:43;5.87;;;2.23;;
30233;SDS011;17046;52.074;4.748;2023-03-23T02:16:27;5.90;;;2.43;;
30233;SDS011;17046;52.074;4.748;2023-03-23T02:25:11;3.57;;;1.80;;
30233;SDS011;17046;52.074;4.748;2023-03-23T02:31:28;5.40;;;1.90;;
30233;SDS011;17046;52.074;4.748;2023-03-23T02:34:17;5.53;;;2.20;;
30233;SDS011;17046;52.074;4.748;2023-03-23T02:36:50;5.63;;;1.87;;
30233;SDS011;17046;52.074;4.748;2023-03-23T02:41:54;5.37;;;1.87;;
30233;SDS011;17046;52.074;4.748;2023-03-23T02:44:23;6.73;;;2.23;;
30233;SDS011;17046;52.074;4.748;2023-03-23T02:46:54;4.90;;;1.90;;
30233;SDS011;17046;52.074;4.748;2023-03-23T02:49:21;6.13;;;2.10;;
30233;SDS011;17046;52.074;4.748;2023-03-23T02:51:50;4.93;;;2.20;;
30233;SDS011;17046;52.074;4.748;2023-03-23T02:54:18;8.33;;;2.33;;
30233;SDS011;17046;52.074;4.748;2023-03-23T02:56:47;3.90;;;1.83;;
30233;SDS011;17046;52.074;4.748;2023-03-23T02:59:15;5.10;;;2.00;;
30233;SDS011;17046;52.074;4.748;2023-03-23T03:04:11;7.13;;;2.23;;
30233;SDS011;17046;52.074;4.748;2023-03-23T03:09:36;5.03;;;1.63;;
30233;SDS011;17046;52.074;4.748;2023-03-23T03:12:07;6.57;;;2.30;;
30233;SDS011;17046;52.074;4.748;2023-03-23T03:14:41;3.13;;;1.50;;
30233;SDS011;17046;52.074;4.748;2023-03-23T03:17:19;4.37;;;1.87;;
30233;SDS011;17046;52.074;4.748;2023-03-23T03:19:49;6.13;;;1.97;;
30233;SDS011;17046;52.074;4.748;2023-03-23T03:22:18;5.03;;;1.97;;
30233;SDS011;17046;52.074;4.748;2023-03-23T03:24:46;4.83;;;2.10;;
30233;SDS011;17046;52.074;4.748;2023-03-23T03:27:13;5.57;;;1.80;;
30233;SDS011;17046;52.074;4.748;2023-03-23T03:29:42;5.17;;;2.23;;
30233;SDS011;17046;52.074;4.748;2023-03-23T03:32:11;7.03;;;2.20;;
30233;SDS011;17046;52.074;4.748;2023-03-23T03:34:43;7.33;;;2.30;;
30233;SDS011;17046;52.074;4.748;2023-03-23T03:37:09;6.37;;;2.60;;
30233;SDS011;17046;52.074;4.748;2023-03-23T03:39:36;8.63;;;2.37;;
30233;SDS011;17046;52.074;4.748;2023-03-23T03:42:03;6.40;;;3.43;;
30233;SDS011;17046;52.074;4.748;2023-03-23T03:44:29;6.97;;;2.23;;
30233;SDS011;17046;52.074;4.748;2023-03-23T03:46:56;5.77;;;2.33;;
30233;SDS011;17046;52.074;4.748;2023-03-23T03:49:21;4.50;;;2.30;;
30233;SDS011;17046;52.074;4.748;2023-03-23T03:51:47;5.90;;;2.10;;
30233;SDS011;17046;52.074;4.748;2023-03-23T03:54:13;7.40;;;2.83;;
30233;SDS011;17046;52.074;4.748;2023-03-23T03:56:38;6.07;;;2.47;;
30233;SDS011;17046;52.074;4.748;2023-03-23T03:59:07;9.93;;;2.40;;
30233;SDS011;17046;52.074;4.748;2023-03-23T04:01:34;5.87;;;3.00;;
30233;SDS011;17046;52.074;4.748;2023-03-23T04:04:01;7.83;;;3.23;;
30233;SDS011;17046;52.074;4.748;2023-03-23T04:06:27;7.03;;;2.70;;
30233;SDS011;17046;52.074;4.748;2023-03-23T04:08:54;9.17;;;2.87;;
30233;SDS011;17046;52.074;4.748;2023-03-23T04:11:20;7.80;;;2.53;;
30233;SDS011;17046;52.074;4.748;2023-03-23T04:13:46;11.10;;;3.73;;
30233;SDS011;17046;52.074;4.748;2023-03-23T04:16:11;9.03;;;2.50;;
30233;SDS011;17046;52.074;4.748;2023-03-23T04:18:37;9.67;;;3.00;;
30233;SDS011;17046;52.074;4.748;2023-03-23T04:21:03;7.47;;;2.07;;
30233;SDS011;17046;52.074;4.748;2023-03-23T04:23:30;9.90;;;2.87;;
30233;SDS011;17046;52.074;4.748;2023-03-23T04:25:58;8.33;;;2.27;;
30233;SDS011;17046;52.074;4.748;2023-03-23T04:28:25;8.07;;;2.20;;
30233;SDS011;17046;52.074;4.748;2023-03-23T04:30:53;8.87;;;1.90;;
30233;SDS011;17046;52.074;4.748;2023-03-23T04:33:20;13.57;;;2.23;;
30233;SDS011;17046;52.074;4.748;2023-03-23T04:35:47;7.97;;;1.90;;
30233;SDS011;17046;52.074;4.748;2023-03-23T04:38:15;5.47;;;2.03;;
30233;SDS011;17046;52.074;4.748;2023-03-23T04:40:45;7.57;;;2.03;;
30233;SDS011;17046;52.074;4.748;2023-03-23T04:43:11;10.23;;;2.27;;
30233;SDS011;17046;52.074;4.748;2023-03-23T04:45:37;9.07;;;2.37;;
30233;SDS011;17046;52.074;4.748;2023-03-23T04:48:06;11.27;;;2.33;;
30233;SDS011;17046;52.074;4.748;2023-03-23T04:50:32;9.13;;;2.37;;
30233;SDS011;17046;52.074;4.748;2023-03-23T04:53:00;11.10;;;2.37;;
30233;SDS011;17046;52.074;4.748;2023-03-23T04:55:29;6.30;;;2.10;;
30233;SDS011;17046;52.074;4.748;2023-03-23T04:57:56;11.40;;;2.33;;
30233;SDS011;17046;52.074;4.748;2023-03-23T05:00:25;8.17;;;2.07;;
30233;SDS011;17046;52.074;4.748;2023-03-23T05:02:51;11.60;;;3.10;;
30233;SDS011;17046;52.074;4.748;2023-03-23T05:05:18;9.40;;;3.20;;
30233;SDS011;17046;52.074;4.748;2023-03-23T05:07:45;14.77;;;3.30;;
30233;SDS011;17046;52.074;4.748;2023-03-23T05:10:12;12.67;;;3.20;;
30233;SDS011;17046;52.074;4.748;2023-03-23T05:12:38;14.20;;;3.70;;
30233;SDS011;17046;52.074;4.748;2023-03-23T05:15:05;8.90;;;4.03;;
30233;SDS011;17046;52.074;4.748;2023-03-23T05:17:33;13.83;;;4.57;;
30233;SDS011;17046;52.074;4.748;2023-03-23T05:20:00;10.13;;;3.93;;
30233;SDS011;17046;52.074;4.748;2023-03-23T05:22:26;13.80;;;4.50;;
30233;SDS011;17046;52.074;4.748;2023-03-23T05:24:53;11.13;;;4.33;;
30233;SDS011;17046;52.074;4.748;2023-03-23T05:27:19;11.93;;;3.77;;
30233;SDS011;17046;52.074;4.748;2023-03-23T05:29:45;13.97;;;4.40;;
30233;SDS011;17046;52.074;4.748;2023-03-23T05:32:13;15.33;;;3.87;;
30233;SDS011;17046;52.074;4.748;2023-03-23T05:34:39;12.40;;;3.60;;
30233;SDS011;17046;52.074;4.748;2023-03-23T05:37:05;10.97;;;3.27;;
30233;SDS011;17046;52.074;4.748;2023-03-23T05:39:31;15.13;;;3.30;;
30233;SDS011;17046;52.074;4.748;2023-03-23T05:41:57;11.70;;;2.73;;
30233;SDS011;17046;52.074;4.748;2023-03-23T05:44:23;15.00;;;3.47;;
30233;SDS011;17046;52.074;4.748;2023-03-23T05:46:49;16.90;;;3.70;;
30233;SDS011;17046;52.074;4.748;2023-03-23T05:49:15;10.67;;;3.20;;
30233;SDS011;17046;52.074;4.748;2023-03-23T05:51:42;14.17;;;3.53;;
30233;SDS011;17046;52.074;4.748;2023-03-23T05:54:09;11.80;;;4.33;;
30233;SDS011;17046;52.074;4.748;2023-03-23T05:56:35;15.60;;;3.47;;
30233;SDS011;17046;52.074;4.748;2023-03-23T05:59:01;14.60;;;3.77;;
30233;SDS011;17046;52.074;4.748;2023-03-23T06:01:28;13.40;;;3.80;;
30233;SDS011;17046;52.074;4.748;2023-03-23T06:03:54;9.53;;;3.00;;
30233;SDS011;17046;52.074;4.748;2023-03-23T06:06:24;13.23;;;3.47;;
30233;SDS011;17046;52.074;4.748;2023-03-23T06:08:50;9.20;;;3.40;;
30233;SDS011;17046;52.074;4.748;2023-03-23T06:11:16;11.80;;;3.87;;
30233;SDS011;17046;52.074;4.748;2023-03-23T06:13:42;10.83;;;4.00;;
30233;SDS011;17046;52.074;4.748;2023-03-23T06:16:08;13.30;;;5.23;;
30233;SDS011;17046;52.074;4.748;2023-03-23T06:18:34;12.37;;;4.27;;
30233;SDS011;17046;52.074;4.748;2023-03-23T06:21:02;11.47;;;4.23;;
30233;SDS011;17046;52.074;4.748;2023-03-23T06:23:30;18.53;;;5.03;;
30233;SDS011;17046;52.074;4.748;2023-03-23T06:25:57;13.13;;;4.83;;
30233;SDS011;17046;52.074;4.748;2023-03-23T06:28:25;16.83;;;4.17;;
30233;SDS011;17046;52.074;4.748;2023-03-23T06:30:51;14.13;;;4.50;;
30233;SDS011;17046;52.074;4.748;2023-03-23T06:33:17;12.83;;;4.70;;
30233;SDS011;17046;52.074;4.748;2023-03-23T06:35:43;15.37;;;4.13;;
30233;SDS011;17046;52.074;4.748;2023-03-23T06:38:09;12.00;;;3.80;;
30233;SDS011;17046;52.074;4.748;2023-03-23T06:40:35;18.13;;;4.30;;
30233;SDS011;17046;52.074;4.748;2023-03-23T06:43:01;13.47;;;3.70;;
30233;SDS011;17046;52.074;4.748;2023-03-23T06:45:28;13.60;;;3.50;;
30233;SDS011;17046;52.074;4.748;2023-03-23T06:47:54;20.33;;;4.87;;
30233;SDS011;17046;52.074;4.748;2023-03-23T06:50:20;11.67;;;3.50;;
30233;SDS011;17046;52.074;4.748;2023-03-23T06:52:46;12.20;;;3.70;;
30233;SDS011;17046;52.074;4.748;2023-03-23T06:55:13;11.93;;;3.30;;
30233;SDS011;17046;52.074;4.748;2023-03-23T06:57:39;11.03;;;2.97;;
30233;SDS011;17046;52.074;4.748;2023-03-23T07:00:06;12.97;;;3.37;;
30233;SDS011;17046;52.074;4.748;2023-03-23T07:02:34;12.03;;;2.57;;
30233;SDS011;17046;52.074;4.748;2023-03-23T07:05:00;14.13;;;3.37;;
30233;SDS011;17046;52.074;4.748;2023-03-23T07:07:28;9.70;;;2.87;;
30233;SDS011;17046;52.074;4.748;2023-03-23T07:09:53;15.20;;;2.67;;
30233;SDS011;17046;52.074;4.748;2023-03-23T07:12:20;12.70;;;2.43;;
30233;SDS011;17046;52.074;4.748;2023-03-23T07:14:46;12.13;;;2.40;;
30233;SDS011;17046;52.074;4.748;2023-03-23T07:17:12;15.27;;;2.63;;
30233;SDS011;17046;52.074;4.748;2023-03-23T07:19:38;10.87;;;3.20;;
30233;SDS011;17046;52.074;4.748;2023-03-23T07:22:04;12.27;;;2.87;;
30233;SDS011;17046;52.074;4.748;2023-03-23T07:24:32;11.20;;;2.70;;
30233;SDS011;17046;52.074;4.748;2023-03-23T07:26:59;12.63;;;2.47;;
30233;SDS011;17046;52.074;4.748;2023-03-23T07:29:25;13.60;;;2.83;;
30233;SDS011;17046;52.074;4.748;2023-03-23T07:31:51;13.23;;;2.77;;
30233;SDS011;17046;52.074;4.748;2023-03-23T07:34:17;9.67;;;2.50;;
30233;SDS011;17046;52.074;4.748;2023-03-23T07:36:44;15.37;;;3.27;;
30233;SDS011;17046;52.074;4.748;2023-03-23T07:39:10;16.90;;;3.27;;
30233;SDS011;17046;52.074;4.748;2023-03-23T07:41:37;14.33;;;2.73;;
30233;SDS011;17046;52.074;4.748;2023-03-23T07:44:02;11.03;;;2.33;;
30233;SDS011;17046;52.074;4.748;2023-03-23T07:46:28;12.10;;;2.57;;
30233;SDS011;17046;52.074;4.748;2023-03-23T07:48:54;9.47;;;3.00;;
30233;SDS011;17046;52.074;4.748;2023-03-23T07:51:21;16.33;;;2.70;;
30233;SDS011;17046;52.074;4.748;2023-03-23T07:53:47;6.47;;;1.97;;
30233;SDS011;17046;52.074;4.748;2023-03-23T07:56:15;10.40;;;2.47;;
30233;SDS011;17046;52.074;4.748;2023-03-23T07:58:43;11.73;;;2.40;;
30233;SDS011;17046;52.074;4.748;2023-03-23T08:01:09;15.87;;;2.90;;
30233;SDS011;17046;52.074;4.748;2023-03-23T08:03:36;10.20;;;2.57;;
30233;SDS011;17046;52.074;4.748;2023-03-23T08:06:02;8.23;;;2.23;;
30233;SDS011;17046;52.074;4.748;2023-03-23T08:08:29;12.03;;;2.63;;
30233;SDS011;17046;52.074;4.748;2023-03-23T08:10:55;11.63;;;2.53;;
30233;SDS011;17046;52.074;4.748;2023-03-23T08:13:21;8.63;;;2.30;;
30233;SDS011;17046;52.074;4.748;2023-03-23T08:15:46;10.57;;;2.60;;
30233;SDS011;17046;52.074;4.748;2023-03-23T08:18:12;14.23;;;2.90;;
30233;SDS011;17046;52.074;4.748;2023-03-23T08:20:38;11.37;;;2.50;;
30233;SDS011;17046;52.074;4.748;2023-03-23T08:23:05;14.50;;;2.63;;
30233;SDS011;17046;52.074;4.748;2023-03-23T08:25:31;15.17;;;3.03;;
30233;SDS011;17046;52.074;4.748;2023-03-23T08:27:57;12.87;;;3.73;;
30233;SDS011;17046;52.074;4.748;2023-03-23T08:30:24;12.93;;;3.53;;
30233;SDS011;17046;52.074;4.748;2023-03-23T08:32:51;9.30;;;3.00;;
30233;SDS011;17046;52.074;4.748;2023-03-23T08:35:17;15.50;;;3.23;;
30233;SDS011;17046;52.074;4.748;2023-03-23T08:37:44;11.03;;;2.40;;
30233;SDS011;17046;52.074;4.748;2023-03-23T08:40:11;14.27;;;3.53;;
30233;SDS011;17046;52.074;4.748;2023-03-23T08:42:39;9.27;;;2.43;;
30233;SDS011;17046;52.074;4.748;2023-03-23T08:45:08;6.90;;;3.23;;
30233;SDS011;17046;52.074;4.748;2023-03-23T08:47:35;13.47;;;3.57;;
30233;SDS011;17046;52.074;4.748;2023-03-23T08:50:04;11.30;;;3.13;;
30233;SDS011;17046;52.074;4.748;2023-03-23T08:52:31;14.27;;;3.30;;
30233;SDS011;17046;52.074;4.748;2023-03-23T08:54:57;12.77;;;3.27;;
30233;SDS011;17046;52.074;4.748;2023-03-23T08:57:23;17.63;;;3.73;;
30233;SDS011;17046;52.074;4.748;2023-03-23T08:59:49;10.50;;;3.77;;
30233;SDS011;17046;52.074;4.748;2023-03-23T09:02:16;13.30;;;3.87;;
30233;SDS011;17046;52.074;4.748;2023-03-23T09:04:42;14.27;;;4.07;;
30233;SDS011;17046;52.074;4.748;2023-03-23T09:07:11;18.53;;;4.67;;
30233;SDS011;17046;52.074;4.748;2023-03-23T09:09:39;15.70;;;4.43;;
30233;SDS011;17046;52.074;4.748;2023-03-23T09:12:06;14.03;;;3.97;;
30233;SDS011;17046;52.074;4.748;2023-03-23T09:14:33;14.07;;;3.80;;
30233;SDS011;17046;52.074;4.748;2023-03-23T09:16:59;14.83;;;3.67;;
30233;SDS011;17046;52.074;4.748;2023-03-23T09:19:25;14.30;;;3.20;;
30233;SDS011;17046;52.074;4.748;2023-03-23T09:21:52;15.60;;;4.40;;
30233;SDS011;17046;52.074;4.748;2023-03-23T09:24:17;11.83;;;2.60;;
30233;SDS011;17046;52.074;4.748;2023-03-23T09:26:44;13.83;;;3.13;;
30233;SDS011;17046;52.074;4.748;2023-03-23T09:29:10;12.10;;;3.03;;
30233;SDS011;17046;52.074;4.748;2023-03-23T09:31:37;13.57;;;2.87;;
30233;SDS011;17046;52.074;4.748;2023-03-23T09:34:04;13.23;;;3.00;;
30233;SDS011;17046;52.074;4.748;2023-03-23T09:36:31;17.27;;;3.57;;
30233;SDS011;17046;52.074;4.748;2023-03-23T09:38:57;17.43;;;2.97;;
30233;SDS011;17046;52.074;4.748;2023-03-23T09:51:54;14.50;;;2.90;;
30233;SDS011;17046;52.074;4.748;2023-03-23T09:54:44;18.53;;;3.33;;
30233;SDS011;17046;52.074;4.748;2023-03-23T09:57:26;11.77;;;2.70;;
30233;SDS011;17046;52.074;4.748;2023-03-23T10:00:01;15.47;;;2.67;;
30233;SDS011;17046;52.074;4.748;2023-03-23T10:03:17;12.97;;;2.67;;
30233;SDS011;17046;52.074;4.748;2023-03-23T10:05:33;14.33;;;3.00;;
30233;SDS011;17046;52.074;4.748;2023-03-23T10:08:02;16.90;;;3.03;;
30233;SDS011;17046;52.074;4.748;2023-03-23T10:13:18;18.03;;;3.13;;
30233;SDS011;17046;52.074;4.748;2023-03-23T10:16:04;17.07;;;3.53;;
30233;SDS011;17046;52.074;4.748;2023-03-23T10:18:39;13.07;;;2.30;;
30233;SDS011;17046;52.074;4.748;2023-03-23T10:21:11;12.93;;;2.97;;
30233;SDS011;17046;52.074;4.748;2023-03-23T10:23:58;16.80;;;2.87;;
30233;SDS011;17046;52.074;4.748;2023-03-23T10:29:34;11.90;;;2.87;;
30233;SDS011;17046;52.074;4.748;2023-03-23T10:32:14;13.00;;;3.07;;
30233;SDS011;17046;52.074;4.748;2023-03-23T10:35:02;15.57;;;2.67;;
30233;SDS011;17046;52.074;4.748;2023-03-23T10:37:38;17.43;;;2.90;;
30233;SDS011;17046;52.074;4.748;2023-03-23T10:40:13;16.47;;;3.20;;
30233;SDS011;17046;52.074;4.748;2023-03-23T10:42:51;16.80;;;3.27;;
30233;SDS011;17046;52.074;4.748;2023-03-23T10:45:21;15.70;;;3.37;;
30233;SDS011;17046;52.074;4.748;2023-03-23T10:51:13;24.00;;;3.67;;
30233;SDS011;17046;52.074;4.748;2023-03-23T10:53:44;19.30;;;3.10;;
30233;SDS011;17046;52.074;4.748;2023-03-23T10:59:19;20.17;;;3.10;;
30233;SDS011;17046;52.074;4.748;2023-03-23T11:01:52;21.77;;;4.33;;
30233;SDS011;17046;52.074;4.748;2023-03-23T11:04:19;16.13;;;3.27;;
30233;SDS011;17046;52.074;4.748;2023-03-23T11:06:54;15.40;;;3.10;;
30233;SDS011;17046;52.074;4.748;2023-03-23T11:09:36;12.13;;;2.27;;
30233;SDS011;17046;52.074;4.748;2023-03-23T11:12:03;17.07;;;2.70;;
30233;SDS011;17046;52.074;4.748;2023-03-23T11:14:32;16.63;;;3.17;;
30233;SDS011;17046;52.074;4.748;2023-03-23T11:17:03;12.23;;;3.17;;
30233;SDS011;17046;52.074;4.748;2023-03-23T11:19:32;12.37;;;2.97;;
30233;SDS011;17046;52.074;4.748;2023-03-23T11:24:42;18.90;;;3.80;;
30233;SDS011;17046;52.074;4.748;2023-03-23T11:27:10;17.77;;;3.17;;
30233;SDS011;17046;52.074;4.748;2023-03-23T11:29:37;11.07;;;2.57;;
30233;SDS011;17046;52.074;4.748;2023-03-23T11:32:23;11.33;;;2.60;;
30233;SDS011;17046;52.074;4.748;2023-03-23T11:34:58;11.33;;;2.50;;
30233;SDS011;17046;52.074;4.748;2023-03-23T11:37:33;19.40;;;3.00;;
30233;SDS011;17046;52.074;4.748;2023-03-23T11:42:38;13.43;;;2.93;;
30233;SDS011;17046;52.074;4.748;2023-03-23T11:45:21;14.27;;;2.53;;
30233;SDS011;17046;52.074;4.748;2023-03-23T11:50:51;14.88;;;2.67;;
30233;SDS011;17046;52.074;4.748;2023-03-23T11:53:35;16.47;;;2.90;;
30233;SDS011;17046;52.074;4.748;2023-03-23T11:56:24;11.20;;;2.63;;
30233;SDS011;17046;52.074;4.748;2023-03-23T11:58:59;10.87;;;2.40;;
30233;SDS011;17046;52.074;4.748;2023-03-23T12:04:20;14.23;;;2.73;;
30233;SDS011;17046;52.074;4.748;2023-03-23T12:09:47;15.10;;;2.57;;
30233;SDS011;17046;52.074;4.748;2023-03-23T12:20:26;10.70;;;1.93;;
30233;SDS011;17046;52.074;4.748;2023-03-23T12:23:22;13.33;;;3.60;;
30233;SDS011;17046;52.074;4.748;2023-03-23T12:48:15;9.70;;;2.75;;
30233;SDS011;17046;52.074;4.748;2023-03-23T12:53:47;13.60;;;2.10;;
30233;SDS011;17046;52.074;4.748;2023-03-23T12:56:35;11.13;;;1.87;;
30233;SDS011;17046;52.074;4.748;2023-03-23T12:59:32;11.07;;;2.37;;
30233;SDS011;17046;52.074;4.748;2023-03-23T13:05:03;11.37;;;2.50;;
30233;SDS011;17046;52.074;4.748;2023-03-23T13:07:55;11.20;;;1.90;;
30233;SDS011;17046;52.074;4.748;2023-03-23T13:10:27;11.60;;;3.17;;
30233;SDS011;17046;52.074;4.748;2023-03-23T13:12:57;9.70;;;2.40;;
30233;SDS011;17046;52.074;4.748;2023-03-23T13:15:27;10.00;;;2.93;;
30233;SDS011;17046;52.074;4.748;2023-03-23T13:21:53;8.38;;;2.05;;
30233;SDS011;17046;52.074;4.748;2023-03-23T13:24:02;10.90;;;2.30;;
30233;SDS011;17046;52.074;4.748;2023-03-23T13:26:40;11.90;;;2.42;;
30233;SDS011;17046;52.074;4.748;2023-03-23T13:31:44;13.07;;;2.30;;
30233;SDS011;17046;52.074;4.748;2023-03-23T13:34:15;13.07;;;2.63;;
30233;SDS011;17046;52.074;4.748;2023-03-23T13:42:18;10.25;;;2.40;;
30233;SDS011;17046;52.074;4.748;2023-03-23T13:49:54;18.15;;;3.50;;
30233;SDS011;17046;52.074;4.748;2023-03-23T13:58:26;16.30;;;2.90;;
30233;SDS011;17046;52.074;4.748;2023-03-23T14:01:12;11.87;;;2.60;;
30233;SDS011;17046;52.074;4.748;2023-03-23T14:03:41;12.53;;;2.50;;
30233;SDS011;17046;52.074;4.748;2023-03-23T14:06:16;12.90;;;1.90;;
30233;SDS011;17046;52.074;4.748;2023-03-23T14:08:50;13.68;;;3.22;;
30233;SDS011;17046;52.074;4.748;2023-03-23T14:21:49;13.73;;;2.70;;
30233;SDS011;17046;52.074;4.748;2023-03-23T14:24:25;11.60;;;2.50;;
30233;SDS011;17046;52.074;4.748;2023-03-23T14:27:00;10.87;;;2.57;;
30233;SDS011;17046;52.074;4.748;2023-03-23T14:29:33;14.93;;;2.73;;
30233;SDS011;17046;52.074;4.748;2023-03-23T14:31:59;13.38;;;2.92;;
30233;SDS011;17046;52.074;4.748;2023-03-23T14:34:26;15.13;;;3.28;;
30233;SDS011;17046;52.074;4.748;2023-03-23T14:36:54;13.63;;;2.85;;
30233;SDS011;17046;52.074;4.748;2023-03-23T14:39:27;8.07;;;2.10;;
30233;SDS011;17046;52.074;4.748;2023-03-23T14:42:04;16.83;;;3.00;;
30233;SDS011;17046;52.074;4.748;2023-03-23T14:44:34;12.90;;;2.47;;
30233;SDS011;17046;52.074;4.748;2023-03-23T14:47:05;11.33;;;2.73;;
30233;SDS011;17046;52.074;4.748;2023-03-23T14:49:37;14.10;;;2.88;;
30233;SDS011;17046;52.074;4.748;2023-03-23T14:52:11;12.77;;;2.65;;
30233;SDS011;17046;52.074;4.748;2023-03-23T14:54:39;12.80;;;2.43;;
30233;SDS011;17046;52.074;4.748;2023-03-23T14:57:15;12.27;;;2.30;;
30233;SDS011;17046;52.074;4.748;2023-03-23T14:59:42;10.87;;;2.43;;
30233;SDS011;17046;52.074;4.748;2023-03-23T15:02:51;14.13;;;3.13;;
30233;SDS011;17046;52.074;4.748;2023-03-23T15:05:47;12.67;;;2.90;;
30233;SDS011;17046;52.074;4.748;2023-03-23T15:07:55;14.63;;;2.63;;
30233;SDS011;17046;52.074;4.748;2023-03-23T15:10:26;12.23;;;2.53;;
30233;SDS011;17046;52.074;4.748;2023-03-23T15:12:52;13.60;;;2.60;;
30233;SDS011;17046;52.074;4.748;2023-03-23T15:15:29;11.93;;;2.87;;
30233;SDS011;17046;52.074;4.748;2023-03-23T15:17:57;10.80;;;2.37;;
30233;SDS011;17046;52.074;4.748;2023-03-23T15:22:54;15.13;;;3.00;;
30233;SDS011;17046;52.074;4.748;2023-03-23T15:25:22;12.73;;;2.50;;
30233;SDS011;17046;52.074;4.748;2023-03-23T15:27:56;9.53;;;2.23;;
30233;SDS011;17046;52.074;4.748;2023-03-23T15:32:51;15.40;;;2.95;;
30233;SDS011;17046;52.074;4.748;2023-03-23T15:35:24;20.93;;;3.17;;
30233;SDS011;17046;52.074;4.748;2023-03-23T15:37:58;16.77;;;2.57;;
30233;SDS011;17046;52.074;4.748;2023-03-23T15:40:26;24.23;;;4.13;;
30233;SDS011;17046;52.074;4.748;2023-03-23T15:48:21;15.52;;;3.20;;
30233;SDS011;17046;52.074;4.748;2023-03-23T15:50:47;9.80;;;2.67;;
30233;SDS011;17046;52.074;4.748;2023-03-23T15:53:18;13.70;;;2.40;;
30233;SDS011;17046;52.074;4.748;2023-03-23T15:55:44;8.93;;;2.13;;
30233;SDS011;17046;52.074;4.748;2023-03-23T15:58:11;15.20;;;2.93;;
30233;SDS011;17046;52.074;4.748;2023-03-23T16:00:37;15.37;;;3.17;;
30233;SDS011;17046;52.074;4.748;2023-03-23T16:03:05;18.90;;;2.43;;
30233;SDS011;17046;52.074;4.748;2023-03-23T16:05:33;16.13;;;2.60;;
30233;SDS011;17046;52.074;4.748;2023-03-23T16:07:59;11.10;;;2.30;;
30233;SDS011;17046;52.074;4.748;2023-03-23T16:10:26;11.88;;;2.70;;
30233;SDS011;17046;52.074;4.748;2023-03-23T16:12:53;16.73;;;3.00;;
30233;SDS011;17046;52.074;4.748;2023-03-23T16:15:19;16.10;;;2.97;;
30233;SDS011;17046;52.074;4.748;2023-03-23T16:17:45;14.00;;;2.63;;
30233;SDS011;17046;52.074;4.748;2023-03-23T16:20:18;14.77;;;3.20;;
30233;SDS011;17046;52.074;4.748;2023-03-23T16:22:46;9.90;;;2.27;;
30233;SDS011;17046;52.074;4.748;2023-03-23T16:25:12;17.90;;;2.97;;
30233;SDS011;17046;52.074;4.748;2023-03-23T16:27:39;12.60;;;3.03;;
30233;SDS011;17046;52.074;4.748;2023-03-23T16:30:12;16.83;;;3.30;;
30233;SDS011;17046;52.074;4.748;2023-03-23T16:32:40;14.33;;;2.73;;
30233;SDS011;17046;52.074;4.748;2023-03-23T16:35:06;15.13;;;2.73;;
30233;SDS011;17046;52.074;4.748;2023-03-23T16:37:32;13.63;;;2.60;;
30233;SDS011;17046;52.074;4.748;2023-03-23T16:39:58;13.53;;;2.50;;
30233;SDS011;17046;52.074;4.748;2023-03-23T16:42:24;13.40;;;2.40;;
30233;SDS011;17046;52.074;4.748;2023-03-23T16:44:50;16.53;;;3.27;;
30233;SDS011;17046;52.074;4.748;2023-03-23T16:47:16;14.40;;;2.90;;
30233;SDS011;17046;52.074;4.748;2023-03-23T16:49:49;17.90;;;3.10;;
30233;SDS011;17046;52.074;4.748;2023-03-23T16:52:15;13.47;;;2.77;;
30233;SDS011;17046;52.074;4.748;2023-03-23T16:54:41;12.83;;;2.47;;
30233;SDS011;17046;52.074;4.748;2023-03-23T16:57:06;12.50;;;2.50;;
30233;SDS011;17046;52.074;4.748;2023-03-23T16:59:32;14.03;;;2.83;;
30233;SDS011;17046;52.074;4.748;2023-03-23T17:01:58;13.67;;;2.70;;
30233;SDS011;17046;52.074;4.748;2023-03-23T17:04:27;18.13;;;3.40;;